Search for airport 
image banner adimage banner adimage banner ad
image banner ad

O85 - Benton Field

Located in Redding, United States

ICAO - O85, IATA - BZF

Data provided by Airmate  

General information

Coordinates: N40°34'25" W122°24'26"
Elevation is 723 feet MSL.
Magnetic variation is 17° East
View others Airports in California

Operational data

Special qualification required
Current time UTC:
Current local time:
Weather at : KRDD - Redding Muni ( 12 km )
METAR: KRDD 221353Z 17006KT 10SM CLR 22/10 A2984 RMK AO2 SLP097 T02170100
TAF: KRDD 221123Z 2212/2312 VRB05KT P6SM FEW250 FM222000 18012KT P6SM FEW250 FM230300 VRB05KT P6SM SKC
View NOTAMs / SUP AIP / TFR affecting this airport [VIEW]
Communications frequencies: [VIEW]

Runways:

RWY identifierQFULength (ft)Width (ft)SurfaceLDA (ft)
15242075ASPH
33242075ASPH

Airport contact information

Address: Redding United States

Other aviation service providers

Flight schools

Benton Air Center

Benton Air Center

Satellite view of O85